Time;durP1;ratioP1;P1;durP2;ratioP2;P2;SDS_P1;SDS_P2;PMS_P1;PMS_P2;Temp;Humidity;BMP_temperature;BMP_pressure;BME280_temperature;BME280_humidity;BME280_pressure;Samples;Min_cycle;Max_cycle;Signal;HPM_P1;HPM_P2
2023/08/10 04:02:23;;;;;;;1.30;1.20;;;10.50;97.30;;;;;;5148185;23;21040;-93
2023/08/10 04:04:56;;;;;;;1.60;1.50;;;10.50;97.30;;;;;;4935238;29;20455;-94
2023/08/10 04:07:27;;;;;;;1.20;1.10;;;10.50;97.30;;;;;;4934730;29;20453;-93
2023/08/10 04:13:33;;;;;;;1.27;1.20;;;10.50;97.30;;;;;;4928958;29;20440;-92
2023/08/10 04:15:59;;;;;;;4.00;2.00;;;10.50;97.30;;;;;;4975114;23;20633;-87
2023/08/10 04:18:25;;;;;;;2.40;1.53;;;10.50;97.30;;;;;;4957349;28;20469;-86
2023/08/10 04:20:51;;;;;;;1.47;1.30;;;10.50;97.30;;;;;;4942708;28;20207;-87
2023/08/10 04:23:16;;;;;;;1.60;1.50;;;10.50;97.30;;;;;;4951126;28;20214;-87
2023/08/10 04:25:42;;;;;;;1.20;1.10;;;10.50;97.30;;;;;;4951124;28;20191;-87
2023/08/10 04:28:07;;;;;;;1.50;1.33;;;10.50;97.30;;;;;;4959204;28;20206;-85
2023/08/10 04:30:33;;;;;;;1.00;0.90;;;10.60;97.30;;;;;;4944799;29;20514;-86
2023/08/10 04:32:59;;;;;;;4.13;3.13;;;10.60;97.30;;;;;;4949809;29;20187;-86
2023/08/10 04:35:24;;;;;;;1.20;1.10;;;10.60;97.30;;;;;;4949222;28;20207;-87
2023/08/10 04:37:53;;;;;;;1.43;1.33;;;10.70;97.30;;;;;;4949949;28;20215;-87
2023/08/10 04:40:19;;;;;;;1.37;1.30;;;10.70;97.30;;;;;;4949822;28;20207;-88
2023/08/10 04:42:44;;;;;;;3.30;3.10;;;10.80;97.30;;;;;;4949608;28;20468;-87
2023/08/10 04:45:10;;;;;;;1.50;1.40;;;10.80;97.30;;;;;;4951209;28;20533;-85
2023/08/10 04:47:36;;;;;;;1.10;1.00;;;10.80;97.30;;;;;;4949526;28;20189;-87
2023/08/10 04:50:03;;;;;;;1.37;1.27;;;10.80;97.30;;;;;;4949946;28;20250;-87
2023/08/10 04:52:28;;;;;;;3.93;3.20;;;10.90;97.30;;;;;;4949893;28;20427;-86
2023/08/10 04:54:54;;;;;;;2.60;2.40;;;10.90;97.30;;;;;;4942670;29;20839;-87
2023/08/10 04:57:19;;;;;;;1.10;1.00;;;10.90;97.30;;;;;;4950174;28;20265;-86
2023/08/10 04:59:46;;;;;;;2.27;2.07;;;10.90;97.30;;;;;;4950996;28;20707;-86
2023/08/10 05:02:11;;;;;;;1.47;1.40;;;10.90;97.30;;;;;;4949959;28;20216;-87
2023/08/10 05:04:37;;;;;;;2.27;1.40;;;10.90;97.30;;;;;;4950049;28;20427;-86
2023/08/10 05:07:03;;;;;;;1.67;1.57;;;10.90;97.30;;;;;;4949536;28;20213;-86
2023/08/10 05:09:28;;;;;;;1.27;1.17;;;11.00;97.30;;;;;;4950446;29;20451;-87
2023/08/10 05:11:54;;;;;;;1.47;1.37;;;11.00;97.30;;;;;;4952403;28;20311;-87
2023/08/10 05:14:19;;;;;;;1.63;1.53;;;11.00;97.30;;;;;;4967273;28;20277;-86
2023/08/10 05:16:45;;;;;;;1.20;1.10;;;11.10;97.30;;;;;;4961534;28;20231;-87
2023/08/10 05:19:10;;;;;;;2.33;2.20;;;11.10;97.30;;;;;;4955588;28;20479;-87
2023/08/10 05:21:37;;;;;;;3.13;2.40;;;11.20;97.30;;;;;;4953097;29;20207;-87
2023/08/10 05:24:03;;;;;;;1.27;1.17;;;11.20;97.30;;;;;;4952961;28;21008;-86
2023/08/10 05:26:28;;;;;;;1.20;1.10;;;11.30;97.30;;;;;;4953227;29;20266;-87
2023/08/10 05:28:54;;;;;;;1.20;1.10;;;11.40;97.30;;;;;;4953449;28;20267;-86
2023/08/10 05:31:20;;;;;;;2.30;2.10;;;11.40;97.30;;;;;;4952838;28;20191;-87
2023/08/10 05:33:45;;;;;;;3.90;2.40;;;11.50;97.30;;;;;;4952833;28;20704;-86
2023/08/10 05:36:11;;;;;;;1.37;1.27;;;11.60;97.30;;;;;;4958674;28;20337;-86
2023/08/10 05:38:38;;;;;;;1.30;1.20;;;11.60;97.30;;;;;;4954408;28;20246;-87
2023/08/10 05:41:04;;;;;;;3.20;2.47;;;11.80;97.30;;;;;;4946216;28;20587;-87
2023/08/10 05:43:29;;;;;;;1.53;1.30;;;11.80;97.30;;;;;;4953925;28;20489;-87
2023/08/10 05:45:55;;;;;;;1.30;1.20;;;11.90;97.30;;;;;;4953928;28;20218;-86
2023/08/10 05:48:21;;;;;;;1.27;1.17;;;11.90;97.30;;;;;;4953767;28;20615;-86
2023/08/10 05:50:46;;;;;;;1.50;1.40;;;12.00;97.30;;;;;;4954307;28;20183;-86
2023/08/10 05:53:12;;;;;;;2.33;2.13;;;12.10;97.30;;;;;;4954170;28;20191;-86
2023/08/10 05:55:38;;;;;;;1.43;1.33;;;12.20;97.30;;;;;;4954487;28;20828;-86
2023/08/10 05:58:03;;;;;;;1.30;1.20;;;12.30;97.30;;;;;;4954113;28;20187;-86
2023/08/10 06:00:29;;;;;;;1.20;1.10;;;12.40;97.30;;;;;;4955388;28;20681;-87
2023/08/10 06:02:54;;;;;;;1.10;1.00;;;12.50;97.30;;;;;;4954845;28;20183;-87
2023/08/10 06:05:20;;;;;;;1.33;1.10;;;12.60;97.30;;;;;;4954064;28;20290;-87
2023/08/10 06:07:47;;;;;;;2.10;1.10;;;12.60;97.30;;;;;;4953854;28;20187;-87
2023/08/10 06:10:16;;;;;;;1.47;1.37;;;12.70;97.30;;;;;;4954103;28;20183;-87
2023/08/10 06:12:43;;;;;;;1.27;1.17;;;12.90;97.30;;;;;;4951557;28;20968;-88
2023/08/10 06:15:09;;;;;;;1.10;1.00;;;13.00;97.30;;;;;;4953453;28;20576;-88
2023/08/10 06:17:36;;;;;;;1.53;1.43;;;13.10;97.30;;;;;;4952496;28;20586;-86
2023/08/10 06:20:09;;;;;;;1.10;1.00;;;13.30;97.30;;;;;;4945735;29;20469;-86
2023/08/10 06:22:38;;;;;;;3.07;1.57;;;13.40;97.30;;;;;;4955667;28;20866;-86
2023/08/10 06:25:04;;;;;;;0.90;0.90;;;13.50;97.30;;;;;;4961539;28;20819;-85
2023/08/10 06:27:31;;;;;;;1.13;1.03;;;13.60;97.30;;;;;;4956063;28;20653;-87
2023/08/10 06:29:57;;;;;;;1.10;1.00;;;13.70;97.30;;;;;;4952495;28;20474;-87
2023/08/10 06:32:22;;;;;;;1.70;1.53;;;13.80;97.30;;;;;;4952752;28;20454;-87
2023/08/10 06:34:48;;;;;;;1.90;1.80;;;13.90;97.30;;;;;;4952787;28;20591;-87
2023/08/10 06:37:15;;;;;;;1.00;0.90;;;14.00;97.30;;;;;;4952321;28;20727;-87
2023/08/10 06:39:41;;;;;;;1.00;0.90;;;14.10;97.30;;;;;;4952575;28;20210;-88
2023/08/10 06:42:06;;;;;;;1.00;0.90;;;14.20;97.30;;;;;;4953777;28;20419;-87
2023/08/10 06:44:32;;;;;;;1.00;0.90;;;14.30;97.30;;;;;;4953413;28;20179;-88
2023/08/10 06:46:58;;;;;;;1.53;1.40;;;14.30;97.30;;;;;;4953302;28;20187;-88
2023/08/10 06:49:23;;;;;;;2.60;1.43;;;14.40;97.30;;;;;;4962234;28;20481;-87
2023/08/10 06:51:50;;;;;;;1.00;0.90;;;14.40;97.30;;;;;;4966190;28;20170;-88
2023/08/10 06:54:16;;;;;;;2.40;2.20;;;14.40;97.30;;;;;;4965186;28;20187;-87
2023/08/10 06:56:42;;;;;;;1.77;1.73;;;14.40;97.30;;;;;;4965661;28;20493;-87
2023/08/10 06:59:07;;;;;;;1.57;1.50;;;14.50;97.30;;;;;;4965825;28;20191;-88
2023/08/10 07:01:33;;;;;;;1.33;1.23;;;14.50;97.30;;;;;;4965313;28;20673;-87
2023/08/10 07:03:59;;;;;;;1.53;1.43;;;14.60;97.30;;;;;;4966017;28;20242;-89
2023/08/10 07:06:26;;;;;;;1.07;0.97;;;14.60;97.30;;;;;;4965489;28;20206;-87
2023/08/10 07:08:52;;;;;;;2.13;1.47;;;14.70;97.30;;;;;;4966254;28;20423;-86
2023/08/10 07:11:21;;;;;;;1.20;1.10;;;14.80;97.30;;;;;;4957448;28;20427;-87
2023/08/10 07:13:48;;;;;;;1.00;0.90;;;14.90;97.30;;;;;;4952868;28;20427;-87
2023/08/10 07:16:15;;;;;;;1.83;1.73;;;15.00;97.30;;;;;;4952023;28;20474;-87
2023/08/10 07:18:41;;;;;;;2.90;1.27;;;15.00;97.30;;;;;;4952340;28;20462;-87
2023/08/10 07:21:06;;;;;;;2.30;1.93;;;15.10;97.30;;;;;;4952540;28;20513;-87
2023/08/10 07:23:32;;;;;;;5.53;2.00;;;15.10;97.30;;;;;;4952579;28;20189;-87
2023/08/10 07:25:58;;;;;;;1.40;1.30;;;15.20;97.30;;;;;;4953778;28;20199;-88
2023/08/10 07:28:24;;;;;;;1.90;1.80;;;15.30;97.30;;;;;;4952751;28;20194;-88
2023/08/10 07:30:53;;;;;;;12.33;1.33;;;15.40;97.30;;;;;;4952512;29;20270;-88
2023/08/10 07:33:19;;;;;;;1.00;0.90;;;15.40;97.30;;;;;;4953690;28;20721;-87
2023/08/10 07:35:45;;;;;;;0.90;0.80;;;15.50;97.30;;;;;;4958228;28;20449;-88
2023/08/10 07:38:16;;;;;;;2.93;1.37;;;15.60;97.30;;;;;;4952880;29;20670;-88
2023/08/10 07:40:42;;;;;;;2.03;1.90;;;15.60;97.30;;;;;;4952431;28;20848;-90
2023/08/10 07:43:07;;;;;;;1.10;1.00;;;15.70;97.30;;;;;;4952419;28;20470;-88
2023/08/10 07:45:33;;;;;;;1.53;1.00;;;15.80;97.30;;;;;;4951881;28;20478;-88
2023/08/10 07:47:58;;;;;;;2.20;1.30;;;15.90;97.30;;;;;;4952816;28;20213;-88
2023/08/10 07:50:24;;;;;;;1.33;1.30;;;15.90;97.30;;;;;;4953635;28;20195;-88
2023/08/10 07:52:50;;;;;;;1.90;1.80;;;16.00;97.30;;;;;;4953759;28;20341;-88
2023/08/10 07:55:15;;;;;;;1.10;1.00;;;16.00;97.30;;;;;;4951904;28;20249;-88
2023/08/10 07:57:41;;;;;;;1.00;0.90;;;16.10;97.30;;;;;;4952286;28;20194;-88
2023/08/10 08:00:09;;;;;;;1.73;1.17;;;16.20;97.30;;;;;;4953311;28;20622;-88
2023/08/10 08:02:36;;;;;;;1.30;1.20;;;16.30;97.30;;;;;;4952241;28;20490;-88
2023/08/10 08:05:02;;;;;;;1.10;1.00;;;16.30;97.30;;;;;;4951703;28;20439;-88
2023/08/10 08:07:30;;;;;;;3.80;1.40;;;16.50;97.30;;;;;;4952120;28;20430;-88
2023/08/10 08:09:59;;;;;;;1.40;1.30;;;16.60;97.30;;;;;;4953292;28;20462;-88
2023/08/10 08:12:26;;;;;;;1.20;1.20;;;16.60;97.30;;;;;;4952350;28;20828;-88
2023/08/10 08:14:52;;;;;;;1.20;1.10;;;16.70;97.30;;;;;;4952875;28;20527;-88
2023/08/10 08:17:19;;;;;;;1.43;1.33;;;16.80;97.30;;;;;;4951859;28;20431;-88
2023/08/10 08:19:44;;;;;;;1.10;1.10;;;16.90;97.30;;;;;;4951870;28;20992;-87
2023/08/10 08:22:10;;;;;;;1.40;1.37;;;17.00;97.30;;;;;;4952073;28;20452;-89
2023/08/10 08:24:35;;;;;;;3.37;1.50;;;17.10;97.30;;;;;;4952878;28;20195;-88
2023/08/10 08:27:01;;;;;;;2.03;1.90;;;17.20;97.30;;;;;;4953642;28;20192;-88
2023/08/10 08:29:26;;;;;;;1.10;1.00;;;17.30;97.30;;;;;;4952085;28;20183;-88
2023/08/10 08:31:52;;;;;;;1.10;1.00;;;17.40;97.30;;;;;;4951774;28;20283;-88
2023/08/10 08:34:17;;;;;;;0.97;0.87;;;17.40;97.30;;;;;;4952064;28;20219;-88
2023/08/10 08:36:44;;;;;;;1.00;0.90;;;17.50;97.30;;;;;;4953157;28;20683;-87
2023/08/10 08:39:10;;;;;;;1.03;0.93;;;17.70;97.20;;;;;;4950701;28;20748;-88
2023/08/10 08:41:37;;;;;;;1.00;1.00;;;17.70;96.50;;;;;;4950973;28;20451;-87
2023/08/10 08:44:08;;;;;;;1.00;1.00;;;17.80;95.90;;;;;;4950999;28;20808;-88
2023/08/10 08:46:37;;;;;;;1.03;0.93;;;17.90;95.60;;;;;;4956004;28;20457;-88
2023/08/10 08:49:04;;;;;;;1.13;1.03;;;17.90;95.30;;;;;;4958055;28;20430;-88
2023/08/10 08:51:30;;;;;;;1.70;1.60;;;18.00;95.40;;;;;;4958011;28;20513;-88
2023/08/10 08:54:00;;;;;;;1.10;1.00;;;18.10;95.40;;;;;;4958733;28;20422;-88
2023/08/10 08:56:26;;;;;;;1.27;1.17;;;18.20;95.60;;;;;;4958084;28;20490;-88
2023/08/10 08:58:52;;;;;;;1.20;1.10;;;18.30;94.80;;;;;;4957716;28;20463;-88
2023/08/10 09:01:19;;;;;;;1.57;1.30;;;18.40;95.30;;;;;;4958005;28;20846;-88
2023/08/10 09:03:45;;;;;;;1.00;0.90;;;18.50;95.40;;;;;;4958011;28;20469;-89
2023/08/10 09:06:11;;;;;;;1.13;1.07;;;18.70;94.00;;;;;;4957485;28;20485;-88
2023/08/10 09:08:41;;;;;;;1.03;0.93;;;18.80;93.70;;;;;;4949785;28;20418;-88
2023/08/10 09:11:07;;;;;;;1.00;0.90;;;18.90;92.90;;;;;;4957419;28;20663;-88
2023/08/10 09:13:32;;;;;;;1.53;1.43;;;19.00;93.00;;;;;;4957854;28;20992;-88
2023/08/10 09:16:08;;;;;;;1.37;1.30;;;19.20;93.60;;;;;;4957200;28;20486;-88
2023/08/10 09:18:36;;;;;;;1.27;1.17;;;19.30;93.40;;;;;;4957645;28;20216;-87
2023/08/10 09:21:23;;;;;;;1.00;0.90;;;19.30;91.60;;;;;;4958774;28;20460;-88
2023/08/10 09:23:52;;;;;;;1.50;1.40;;;19.30;91.60;;;;;;4957733;28;20857;-88
2023/08/10 09:26:19;;;;;;;1.17;1.07;;;19.40;92.40;;;;;;4956558;28;20442;-88
2023/08/10 09:28:50;;;;;;;1.43;1.10;;;19.50;92.90;;;;;;4958892;28;20861;-89
2023/08/10 09:31:23;;;;;;;1.33;1.23;;;19.60;92.20;;;;;;4957196;28;20822;-88
2023/08/10 09:33:53;;;;;;;0.90;0.80;;;19.70;91.40;;;;;;4957341;28;20793;-89
2023/08/10 09:36:26;;;;;;;1.47;1.40;;;19.80;91.50;;;;;;4965773;28;20454;-88
2023/08/10 09:38:52;;;;;;;2.53;1.63;;;19.90;91.90;;;;;;4957618;28;20473;-88
2023/08/10 09:41:23;;;;;;;1.83;1.00;;;20.00;91.60;;;;;;4957368;28;20473;-88
2023/08/10 09:43:49;;;;;;;2.17;1.67;;;20.10;90.60;;;;;;4957410;28;20694;-88
2023/08/10 09:46:16;;;;;;;2.00;1.10;;;20.10;89.40;;;;;;4957207;28;20443;-88
2023/08/10 09:48:48;;;;;;;2.90;2.70;;;20.10;90.60;;;;;;4956522;28;20513;-88
2023/08/10 09:51:14;;;;;;;1.20;1.10;;;20.20;89.10;;;;;;4956186;28;20485;-87
2023/08/10 09:53:40;;;;;;;1.40;1.30;;;20.20;88.90;;;;;;4957301;28;20435;-88
2023/08/10 09:56:07;;;;;;;1.23;1.20;;;20.20;88.90;;;;;;4955947;28;20462;-88
2023/08/10 09:58:37;;;;;;;1.10;1.00;;;20.20;89.40;;;;;;4954306;28;20471;-90
2023/08/10 10:01:07;;;;;;;1.03;0.93;;;20.30;89.10;;;;;;4954246;28;20586;-87
2023/08/10 10:03:33;;;;;;;1.17;1.10;;;20.40;89.80;;;;;;4954306;28;20446;-89
2023/08/10 10:06:00;;;;;;;1.53;1.10;;;20.50;89.90;;;;;;4955300;28;20447;-89
2023/08/10 10:08:26;;;;;;;1.37;0.97;;;20.60;89.40;;;;;;4954076;28;20802;-89
2023/08/10 10:10:56;;;;;;;1.57;1.00;;;20.80;87.30;;;;;;4954048;28;20441;-88
2023/08/10 10:13:22;;;;;;;2.30;2.20;;;20.90;87.30;;;;;;4953863;28;20933;-88
2023/08/10 10:15:48;;;;;;;1.93;1.87;;;21.00;87.90;;;;;;4967157;23;20868;-69
2023/08/10 10:18:14;;;;;;;2.50;1.17;;;21.10;88.30;;;;;;4932293;29;20195;-68
2023/08/10 10:20:43;;;;;;;0.97;0.90;;;21.20;88.50;;;;;;4932397;29;20485;-68
2023/08/10 10:23:20;;;;;;;3.27;1.77;;;21.40;87.30;;;;;;4933638;29;20808;-68
2023/08/10 10:25:57;;;;;;;1.00;0.90;;;21.60;87.60;;;;;;4932266;29;20450;-68
2023/08/10 10:28:23;;;;;;;1.20;1.10;;;21.70;87.00;;;;;;4934021;29;20420;-69
2023/08/10 10:31:04;;;;;;;1.23;1.13;;;21.70;85.00;;;;;;4933541;29;20843;-68
2023/08/10 10:33:29;;;;;;;1.10;1.07;;;21.60;85.40;;;;;;4927386;29;20255;-69
2023/08/10 10:36:18;;;;;;;1.13;0.90;;;21.40;86.00;;;;;;4931783;29;20459;-68
2023/08/10 10:38:47;;;;;;;1.33;1.30;;;21.30;86.00;;;;;;4933346;29;20600;-69
2023/08/10 10:41:14;;;;;;;1.23;1.13;;;21.20;86.00;;;;;;4931772;29;20860;-69
2023/08/10 10:43:39;;;;;;;1.57;1.47;;;21.10;85.90;;;;;;4933409;29;20427;-68
2023/08/10 10:46:05;;;;;;;2.37;1.00;;;20.90;86.10;;;;;;4931762;29;20515;-68
2023/08/10 10:48:36;;;;;;;1.37;1.30;;;21.00;87.40;;;;;;4933175;29;20516;-69
2023/08/10 10:51:04;;;;;;;1.73;1.30;;;21.10;86.20;;;;;;4932909;29;20455;-68
2023/08/10 10:53:29;;;;;;;2.20;2.00;;;21.30;84.60;;;;;;4933071;29;20432;-69
2023/08/10 10:55:56;;;;;;;1.43;1.33;;;21.40;85.30;;;;;;4940769;29;20816;-69
2023/08/10 10:58:22;;;;;;;1.77;0.97;;;21.60;85.80;;;;;;4940995;29;20590;-69
2023/08/10 11:00:48;;;;;;;1.10;1.00;;;21.70;83.50;;;;;;4942045;28;20503;-68
2023/08/10 11:03:14;;;;;;;1.53;1.47;;;21.90;84.70;;;;;;4918482;29;20192;-68
2023/08/10 11:05:40;;;;;;;0.90;0.80;;;21.90;85.40;;;;;;4940526;29;20560;-69
2023/08/10 11:08:06;;;;;;;1.33;1.30;;;22.10;84.70;;;;;;4929413;28;20184;-69
2023/08/10 11:10:37;;;;;;;2.60;2.20;;;22.20;85.30;;;;;;4944765;28;20443;-69
2023/08/10 11:13:04;;;;;;;11.03;1.80;;;22.30;86.40;;;;;;4937189;28;20522;-69
2023/08/10 11:15:30;;;;;;;1.00;0.90;;;22.50;83.40;;;;;;4932476;29;20472;-70
2023/08/10 11:17:57;;;;;;;0.93;0.83;;;22.60;83.60;;;;;;4946155;29;20415;-68
2023/08/10 11:20:23;;;;;;;1.37;1.10;;;22.70;83.00;;;;;;4944405;29;20231;-70
2023/08/10 11:22:49;;;;;;;1.00;0.90;;;22.80;82.00;;;;;;4937868;28;20882;-70
2023/08/10 11:25:29;;;;;;;1.13;1.03;;;22.90;83.60;;;;;;4935236;29;20826;-68
2023/08/10 11:27:57;;;;;;;1.17;1.07;;;23.00;82.30;;;;;;4935453;28;20485;-69
2023/08/10 11:30:23;;;;;;;4.40;1.40;;;23.10;83.30;;;;;;4929203;28;20424;-69
2023/08/10 11:32:54;;;;;;;1.20;1.10;;;23.20;80.30;;;;;;4933829;29;20431;-68
2023/08/10 11:35:22;;;;;;;1.23;1.13;;;23.20;80.50;;;;;;4930194;29;20436;-70
2023/08/10 11:37:48;;;;;;;1.10;1.00;;;23.10;80.80;;;;;;4931984;29;20455;-69
2023/08/10 11:40:15;;;;;;;2.17;1.40;;;23.00;80.60;;;;;;4931502;29;20474;-70
2023/08/10 11:42:43;;;;;;;0.90;0.80;;;22.90;79.90;;;;;;4931831;29;20419;-73
2023/08/10 11:45:18;;;;;;;1.07;0.97;;;22.70;79.80;;;;;;4932748;29;20424;-70
2023/08/10 11:47:45;;;;;;;0.90;0.80;;;22.50;80.90;;;;;;4930948;29;20439;-69
2023/08/10 11:50:13;;;;;;;1.00;0.90;;;22.50;81.30;;;;;;4930828;29;21006;-70
2023/08/10 11:52:40;;;;;;;1.33;1.23;;;22.40;81.90;;;;;;4932177;29;20430;-69
2023/08/10 11:55:14;;;;;;;0.90;0.80;;;22.40;82.00;;;;;;4931717;29;20535;-70
2023/08/10 11:57:51;;;;;;;3.43;2.13;;;22.40;82.20;;;;;;4933058;29;20454;-70
2023/08/10 12:00:30;;;;;;;0.90;0.80;;;22.40;81.40;;;;;;4932651;29;20474;-70
2023/08/10 12:03:07;;;;;;;1.00;0.90;;;22.50;82.20;;;;;;4931363;29;20458;-69
2023/08/10 12:05:44;;;;;;;0.93;0.83;;;22.60;82.60;;;;;;4932395;29;20411;-69
2023/08/10 12:08:23;;;;;;;0.87;0.83;;;22.60;81.10;;;;;;4931814;29;20785;-70
2023/08/10 12:10:58;;;;;;;1.30;1.20;;;22.60;80.70;;;;;;4930149;29;20447;-70
2023/08/10 12:13:24;;;;;;;1.17;1.00;;;22.50;79.90;;;;;;4930600;29;20423;-69
2023/08/10 12:15:51;;;;;;;1.10;1.00;;;22.50;81.10;;;;;;4930270;29;20471;-69
2023/08/10 12:18:18;;;;;;;2.27;2.10;;;22.70;81.90;;;;;;4929573;29;20188;-70
2023/08/10 12:20:46;;;;;;;1.17;1.00;;;22.80;80.00;;;;;;4928036;29;20904;-70
2023/08/10 12:23:12;;;;;;;1.90;1.20;;;23.00;81.70;;;;;;4929186;29;20502;-70
2023/08/10 12:25:38;;;;;;;1.70;1.13;;;23.10;80.10;;;;;;4928767;29;20504;-69
2023/08/10 12:28:07;;;;;;;9.50;1.37;;;23.10;79.20;;;;;;4927218;29;20435;-69
2023/08/10 12:30:34;;;;;;;1.13;1.07;;;23.00;79.00;;;;;;4928819;29;20490;-70
2023/08/10 12:33:00;;;;;;;1.40;1.30;;;23.00;79.40;;;;;;4928417;29;20459;-69
2023/08/10 12:35:26;;;;;;;3.37;1.00;;;23.10;80.40;;;;;;4934188;29;20432;-69
2023/08/10 12:37:52;;;;;;;1.00;0.90;;;23.20;79.00;;;;;;4939491;29;20438;-69
2023/08/10 12:40:18;;;;;;;1.00;0.90;;;23.10;78.70;;;;;;4938916;28;20261;-70
2023/08/10 12:42:44;;;;;;;1.53;1.07;;;23.20;80.10;;;;;;4935270;28;20491;-69
2023/08/10 12:45:11;;;;;;;1.07;1.03;;;23.30;79.60;;;;;;4930648;29;20192;-68
2023/08/10 12:47:41;;;;;;;1.10;1.00;;;23.40;80.50;;;;;;4942743;29;20414;-68
2023/08/10 12:50:08;;;;;;;1.57;1.00;;;23.50;79.40;;;;;;4936947;29;20423;-69
2023/08/10 12:52:34;;;;;;;1.40;1.30;;;23.70;79.50;;;;;;4940933;29;20935;-69
2023/08/10 12:55:01;;;;;;;1.07;1.03;;;23.80;77.10;;;;;;4935651;29;20451;-69
2023/08/10 12:57:27;;;;;;;1.00;0.90;;;23.70;78.50;;;;;;4936966;29;20648;-69
2023/08/10 12:59:53;;;;;;;0.97;0.90;;;23.70;78.20;;;;;;4939624;28;21013;-68
2023/08/10 13:02:19;;;;;;;1.57;1.53;;;23.80;79.00;;;;;;4934482;29;20448;-69
2023/08/10 13:04:46;;;;;;;7.13;2.20;;;23.90;78.20;;;;;;4942817;29;20194;-69
2023/08/10 13:07:12;;;;;;;1.17;0.90;;;24.10;78.00;;;;;;4929210;28;20333;-69
2023/08/10 13:09:37;;;;;;;1.80;1.03;;;24.20;76.40;;;;;;4928502;29;20412;-69
2023/08/10 13:12:03;;;;;;;1.80;1.33;;;24.30;73.60;;;;;;4929132;29;20458;-69
2023/08/10 13:14:29;;;;;;;1.63;1.17;;;24.40;73.90;;;;;;4916360;29;20176;-70
2023/08/10 13:16:55;;;;;;;1.13;1.03;;;24.50;72.90;;;;;;4932139;29;20225;-68
2023/08/10 13:19:20;;;;;;;1.00;1.00;;;24.60;76.40;;;;;;4932357;29;20331;-68
2023/08/10 13:21:46;;;;;;;1.30;1.00;;;24.80;73.30;;;;;;4937398;29;20211;-68
2023/08/10 13:24:12;;;;;;;1.40;1.30;;;24.90;73.10;;;;;;4938525;29;20180;-68
2023/08/10 13:26:38;;;;;;;1.60;1.50;;;25.10;72.00;;;;;;4935805;29;20424;-68
2023/08/10 13:29:04;;;;;;;1.10;1.00;;;25.20;70.60;;;;;;4933930;29;20638;-68
2023/08/10 13:31:29;;;;;;;1.10;1.00;;;25.30;71.80;;;;;;4933349;29;20212;-69
2023/08/10 13:33:55;;;;;;;1.10;1.00;;;25.40;71.50;;;;;;4937658;29;20257;-69
2023/08/10 13:36:20;;;;;;;1.00;0.90;;;25.40;71.60;;;;;;4940215;29;20763;-69
2023/08/10 13:38:46;;;;;;;1.30;1.20;;;25.50;72.10;;;;;;4942745;29;20578;-69
2023/08/10 13:41:11;;;;;;;1.47;0.90;;;25.50;72.10;;;;;;4941656;28;20820;-69
2023/08/10 13:43:37;;;;;;;1.00;0.90;;;25.70;72.00;;;;;;4933812;29;20180;-69
2023/08/10 13:46:03;;;;;;;0.90;0.80;;;25.80;72.80;;;;;;4932328;29;20172;-69
2023/08/10 13:48:28;;;;;;;1.13;1.10;;;25.80;71.50;;;;;;4931389;29;20735;-71
2023/08/10 13:50:54;;;;;;;1.03;0.93;;;25.90;71.40;;;;;;4941436;29;20207;-69
2023/08/10 13:53:20;;;;;;;1.10;1.00;;;25.90;70.10;;;;;;4939485;28;20189;-68
2023/08/10 13:55:46;;;;;;;1.30;1.20;;;25.90;70.60;;;;;;4942669;29;20258;-66
2023/08/10 13:58:12;;;;;;;0.97;0.83;;;25.90;71.30;;;;;;4939780;28;20566;-66
2023/08/10 14:00:38;;;;;;;0.70;0.70;;;26.00;70.40;;;;;;4941025;28;20463;-67
2023/08/10 14:03:04;;;;;;;0.87;0.83;;;26.00;72.20;;;;;;4941239;28;20235;-67
2023/08/10 14:05:34;;;;;;;0.70;0.70;;;25.90;72.20;;;;;;4932459;29;20423;-67
2023/08/10 14:08:00;;;;;;;0.90;0.80;;;26.00;71.00;;;;;;4941818;29;20444;-68
2023/08/10 14:10:25;;;;;;;1.07;1.03;;;26.00;70.00;;;;;;4932452;29;20490;-66
2023/08/10 14:12:51;;;;;;;1.00;0.90;;;25.90;70.90;;;;;;4936949;29;20664;-67
2023/08/10 14:15:17;;;;;;;0.80;0.70;;;25.90;72.20;;;;;;4931243;29;20651;-67
2023/08/10 14:17:43;;;;;;;0.90;0.80;;;26.00;71.40;;;;;;4931978;29;20831;-67
2023/08/10 14:20:10;;;;;;;0.90;0.80;;;26.00;72.10;;;;;;4933537;29;20967;-66
2023/08/10 14:22:36;;;;;;;0.80;0.70;;;26.10;72.70;;;;;;4932576;29;20649;-67
2023/08/10 14:25:02;;;;;;;0.87;0.80;;;26.40;72.50;;;;;;4932414;29;20505;-67
2023/08/10 14:27:28;;;;;;;1.20;1.07;;;26.30;70.30;;;;;;4933645;29;20416;-67
2023/08/10 14:29:54;;;;;;;1.10;1.00;;;26.20;70.40;;;;;;4933461;29;20522;-67
2023/08/10 14:32:21;;;;;;;1.10;1.07;;;26.10;70.90;;;;;;4933165;29;20928;-66
2023/08/10 14:34:46;;;;;;;1.10;1.00;;;26.10;72.00;;;;;;4933189;29;20180;-65
2023/08/10 14:37:12;;;;;;;1.30;1.20;;;25.90;71.40;;;;;;4935921;29;20458;-66
2023/08/10 14:39:38;;;;;;;2.53;1.47;;;25.90;71.70;;;;;;4941432;29;20179;-66
2023/08/10 14:42:03;;;;;;;0.90;0.80;;;25.90;72.50;;;;;;4943687;28;20203;-67
2023/08/10 14:44:29;;;;;;;0.80;0.80;;;26.00;73.70;;;;;;4933436;29;20544;-67
2023/08/10 14:46:54;;;;;;;1.10;1.00;;;26.20;72.90;;;;;;4934223;29;20591;-67
2023/08/10 14:49:20;;;;;;;1.03;0.93;;;26.40;72.70;;;;;;4934355;29;20188;-67
2023/08/10 14:51:45;;;;;;;1.37;1.27;;;26.50;74.80;;;;;;4933281;29;20195;-66
2023/08/10 14:54:11;;;;;;;0.97;0.87;;;26.70;73.70;;;;;;4934269;29;20258;-66
2023/08/10 14:56:37;;;;;;;1.20;1.10;;;26.80;72.10;;;;;;4933599;29;20214;-66
2023/08/10 14:59:03;;;;;;;1.17;1.10;;;26.90;71.70;;;;;;4938972;29;20231;-66
2023/08/10 15:01:28;;;;;;;1.10;1.00;;;26.90;70.00;;;;;;4932297;29;20738;-67
2023/08/10 15:03:54;;;;;;;0.87;0.80;;;26.90;70.80;;;;;;4933725;28;20427;-66
2023/08/10 15:06:19;;;;;;;0.90;0.80;;;27.00;72.10;;;;;;4933987;29;20586;-66
2023/08/10 15:08:45;;;;;;;0.87;0.77;;;27.00;71.40;;;;;;4933659;29;20178;-65
2023/08/10 15:11:12;;;;;;;1.77;1.03;;;27.00;70.30;;;;;;4936721;29;20210;-66
2023/08/10 15:13:38;;;;;;;1.40;1.30;;;26.90;70.80;;;;;;4932613;28;20180;-66
2023/08/10 15:16:04;;;;;;;1.10;1.00;;;26.90;70.50;;;;;;4933844;29;20490;-66
2023/08/10 15:18:31;;;;;;;0.90;0.80;;;26.70;70.80;;;;;;4933482;29;20691;-66
2023/08/10 15:20:57;;;;;;;0.90;0.80;;;26.60;71.00;;;;;;4935403;29;20843;-66
2023/08/10 15:23:23;;;;;;;0.97;0.87;;;26.40;71.10;;;;;;4935961;28;20416;-66
2023/08/10 15:25:49;;;;;;;2.10;1.90;;;26.40;71.70;;;;;;4934103;29;20188;-66
2023/08/10 15:28:14;;;;;;;1.00;0.80;;;26.40;71.10;;;;;;4935901;28;20516;-66
2023/08/10 15:30:40;;;;;;;1.20;0.90;;;26.50;70.10;;;;;;4937185;29;20287;-65
2023/08/10 15:33:06;;;;;;;0.90;0.80;;;26.60;71.80;;;;;;4934323;28;20208;-66
2023/08/10 15:35:32;;;;;;;0.93;0.80;;;26.80;70.60;;;;;;4934440;29;20186;-68
2023/08/10 15:37:58;;;;;;;1.20;0.90;;;26.80;70.90;;;;;;4938121;29;20265;-66
2023/08/10 15:40:23;;;;;;;0.97;0.87;;;26.90;70.00;;;;;;4934360;29;20475;-66
2023/08/10 15:42:49;;;;;;;1.67;1.57;;;27.00;71.70;;;;;;4933470;29;20180;-66
2023/08/10 15:45:15;;;;;;;1.03;1.00;;;27.10;71.00;;;;;;4933356;29;20190;-66
2023/08/10 15:47:41;;;;;;;1.20;1.10;;;27.20;69.50;;;;;;4933376;29;20176;-66
2023/08/10 15:50:08;;;;;;;1.07;1.00;;;27.20;68.70;;;;;;4933194;29;20180;-66
2023/08/10 15:52:34;;;;;;;1.63;1.60;;;27.10;70.30;;;;;;4931887;29;20590;-66
2023/08/10 15:55:00;;;;;;;1.00;0.90;;;27.10;69.00;;;;;;4937201;29;20434;-66
2023/08/10 15:57:26;;;;;;;1.10;1.00;;;27.10;69.30;;;;;;4931108;29;20660;-66
2023/08/10 15:59:51;;;;;;;0.93;0.87;;;27.10;69.90;;;;;;4931838;29;20499;-66
2023/08/10 16:02:19;;;;;;;1.00;0.90;;;27.20;70.60;;;;;;4935484;29;20208;-66
2023/08/10 16:04:44;;;;;;;0.83;0.73;;;27.20;69.80;;;;;;4936137;29;20175;-66
2023/08/10 16:07:10;;;;;;;1.27;1.17;;;27.30;70.60;;;;;;4937441;28;20494;-66
2023/08/10 16:09:36;;;;;;;0.87;0.77;;;27.50;69.90;;;;;;4932733;29;20184;-66
2023/08/10 16:12:02;;;;;;;0.80;0.70;;;27.50;69.90;;;;;;4934529;29;20214;-66
2023/08/10 16:14:27;;;;;;;0.83;0.80;;;27.50;69.40;;;;;;4923736;29;20184;-66
2023/08/10 16:16:53;;;;;;;1.20;1.10;;;27.60;70.80;;;;;;4979041;23;20497;-90
2023/08/10 16:19:18;;;;;;;1.67;1.57;;;27.70;68.80;;;;;;4975411;28;20186;-91
2023/08/10 16:21:44;;;;;;;1.13;1.10;;;27.80;68.40;;;;;;4975505;28;20218;-91
2023/08/10 16:24:12;;;;;;;3.83;1.00;;;27.90;68.40;;;;;;4976314;28;20206;-92
2023/08/10 16:26:38;;;;;;;0.87;0.77;;;27.90;68.40;;;;;;4963187;28;20203;-90
2023/08/10 16:29:04;;;;;;;0.90;0.80;;;27.80;67.60;;;;;;4959889;23;20502;-64
2023/08/10 16:31:29;;;;;;;0.70;0.70;;;27.70;67.70;;;;;;4948049;28;20294;-64
2023/08/10 16:33:55;;;;;;;0.83;0.77;;;27.60;67.40;;;;;;4942686;29;20438;-64
2023/08/10 16:36:20;;;;;;;1.17;1.07;;;27.50;68.30;;;;;;4952870;28;20447;-64
2023/08/10 16:38:46;;;;;;;1.20;1.10;;;27.40;67.70;;;;;;4955946;28;20187;-64
2023/08/10 16:41:11;;;;;;;0.80;0.80;;;27.30;67.60;;;;;;4951306;28;20219;-64
2023/08/10 16:43:38;;;;;;;0.80;0.80;;;27.20;68.00;;;;;;4956886;28;20179;-64
2023/08/10 16:46:04;;;;;;;0.93;0.87;;;27.20;68.40;;;;;;4949111;28;20202;-64
2023/08/10 16:48:29;;;;;;;1.10;1.00;;;27.10;67.80;;;;;;4948577;28;20521;-64
2023/08/10 16:50:55;;;;;;;1.07;1.03;;;27.10;68.80;;;;;;4945557;28;20211;-64